Mariner Of The Seas — C6FV9 — position and weather

sailwx.info

Track history (hours):
 
Tides and Currents Weather Stations Pressure Air Temp Water Temp Dewpoint Dewpoint Depression Visibility Wind Speed Wind Dir Waves Ship Positions

Mariner Of The Seas

Operator: Royal Caribbean Cruises Ltd

Last reported at 2015-Jan-19 16:21 UTC. Time now 2015-Jan-25 14:23 UTC.
Position N 01°51' E 102°28'.

Type: Passenger vessel. MMSI: 311493000.

Date/timePositionNaut miles runAvg speedWind from/ knotsBaromVisibWave heightAir tempDewpointWater temp
2015-Jan-19 16:21N 01°51' E 102°28'1314.9
2015-Jan-19 15:29N 01°45' E 102°39'7913.3
2015-Jan-19 09:32N 01°14' E 103°52'3 2.0
2015-Jan-19 08:17N 01°16' E 103°52'0 0.0
2015-Jan-19 06:23N 01°16' E 103°52'0 0.0
2015-Jan-19 05:05N 01°16' E 103°52'0 0.0
2015-Jan-19 04:23N 01°16' E 103°52'0 0.0
2015-Jan-19 03:26N 01°16' E 103°52'0 0.0
2015-Jan-19 02:29N 01°16' E 103°52'0 0.1
2015-Jan-19 01:29N 01°16' E 103°52'0 0.1
2015-Jan-19 00:23N 01°16' E 103°52'0 0.1
2015-Jan-18 23:32N 01°16' E 103°52'6 5.4
2015-Jan-18 22:30N 01°11' E 103°49'8511.8
2015-Jan-18 15:14N 01°44' E 102°31'  
2015-Jan-16 08:33N 01°16' E 103°52'0 0.4
2015-Jan-16 07:20N 01°16' E 103°52'0 0.0
2015-Jan-16 05:32N 01°16' E 103°52'0 0.0
2015-Jan-16 03:32N 01°16' E 103°52'0 0.0
2015-Jan-16 02:26N 01°16' E 103°52'0 0.1
2015-Jan-16 01:32N 01°16' E 103°52'0 0.1
2015-Jan-16 00:26N 01°16' E 103°52'1 0.6
2015-Jan-15 23:26N 01°15' E 103°52'8211.4
2015-Jan-15 16:13N 01°43' E 102°34'914.0
2015-Jan-15 15:33N 01°47' E 102°26'  
2015-Jan-12 16:06N 01°52' E 102°25'1415.2
2015-Jan-12 15:12N 01°46' E 102°38'8014.3
2015-Jan-12 09:33N 01°14' E 103°52'2 1.4
2015-Jan-12 08:15N 01°16' E 103°52'0 0.0
2015-Jan-12 07:27N 01°16' E 103°52'0 0.0
2015-Jan-12 06:33N 01°16' E 103°52'0 0.0
2015-Jan-12 05:33N 01°16' E 103°52'0 0.0
2015-Jan-12 04:33N 01°16' E 103°52'0 0.0
2015-Jan-12 03:27N 01°16' E 103°52'0 0.0
2015-Jan-12 02:18N 01°16' E 103°52'0 0.0
2015-Jan-12 01:24N 01°16' E 103°52'0 0.0
2015-Jan-12 00:15N 01°16' E 103°52'0 0.3
2015-Jan-11 23:33N 01°16' E 103°52'5 5.1
2015-Jan-11 22:30N 01°11' E 103°50'7810.9
2015-Jan-11 15:21N 01°42' E 102°38'912.0
2015-Jan-11 14:33N 01°45' E 102°30'  
Track history (hours):
 
Tides and Currents Weather Stations Pressure Air Temp Water Temp Dewpoint Dewpoint Depression Visibility Wind Speed Wind Dir Waves Ship Positions

Mariner Of The Seas

Operator: Royal Caribbean Cruises Ltd

Last reported at 2015-Jan-19 16:21 UTC. Time now 2015-Jan-25 14:23 UTC.
Position N 01°51' E 102°28'.

Type: Passenger vessel. MMSI: 311493000.

Date/timePositionNaut miles runAvg speedWind from/ knotsBaromVisibWave heightAir tempDewpointWater temp
2015-Jan-19 16:21N 01°51' E 102°28'1314.9
2015-Jan-19 15:29N 01°45' E 102°39'7913.3
2015-Jan-19 09:32N 01°14' E 103°52'3 2.0
2015-Jan-19 08:17N 01°16' E 103°52'0 0.0
2015-Jan-19 06:23N 01°16' E 103°52'0 0.0
2015-Jan-19 05:05N 01°16' E 103°52'0 0.0
2015-Jan-19 04:23N 01°16' E 103°52'0 0.0
2015-Jan-19 03:26N 01°16' E 103°52'0 0.0
2015-Jan-19 02:29N 01°16' E 103°52'0 0.1
2015-Jan-19 01:29N 01°16' E 103°52'0 0.1
2015-Jan-19 00:23N 01°16' E 103°52'0 0.1
2015-Jan-18 23:32N 01°16' E 103°52'6 5.4
2015-Jan-18 22:30N 01°11' E 103°49'8511.8
2015-Jan-18 15:14N 01°44' E 102°31'  
2015-Jan-16 08:33N 01°16' E 103°52'0 0.4
2015-Jan-16 07:20N 01°16' E 103°52'0 0.0
2015-Jan-16 05:32N 01°16' E 103°52'0 0.0
2015-Jan-16 03:32N 01°16' E 103°52'0 0.0
2015-Jan-16 02:26N 01°16' E 103°52'0 0.1
2015-Jan-16 01:32N 01°16' E 103°52'0 0.1
2015-Jan-16 00:26N 01°16' E 103°52'1 0.6
2015-Jan-15 23:26N 01°15' E 103°52'8211.4
2015-Jan-15 16:13N 01°43' E 102°34'914.0
2015-Jan-15 15:33N 01°47' E 102°26'  
2015-Jan-12 16:06N 01°52' E 102°25'1415.2
2015-Jan-12 15:12N 01°46' E 102°38'8014.3
2015-Jan-12 09:33N 01°14' E 103°52'2 1.4
2015-Jan-12 08:15N 01°16' E 103°52'0 0.0
2015-Jan-12 07:27N 01°16' E 103°52'0 0.0
2015-Jan-12 06:33N 01°16' E 103°52'0 0.0
2015-Jan-12 05:33N 01°16' E 103°52'0 0.0
2015-Jan-12 04:33N 01°16' E 103°52'0 0.0
2015-Jan-12 03:27N 01°16' E 103°52'0 0.0
2015-Jan-12 02:18N 01°16' E 103°52'0 0.0
2015-Jan-12 01:24N 01°16' E 103°52'0 0.0
2015-Jan-12 00:15N 01°16' E 103°52'0 0.3
2015-Jan-11 23:33N 01°16' E 103°52'5 5.1
2015-Jan-11 22:30N 01°11' E 103°50'7810.9
2015-Jan-11 15:21N 01°42' E 102°38'912.0
2015-Jan-11 14:33N 01°45' E 102°30'  

Dump ship's entire track history